Terminal Aerodrome Forecast
Issued by NWS Louisville, KY

Home | Current Version | Previous Version | Text Only | Print | Product List | Glossary On
Versions: 1 2 3 4 5 6 7 8 9 10 11 12 13 14 15 16 17 18 19
673
FTUS43 KLMK 221120
TAFSDF
TAF
KSDF 221120Z 2212/2318 08006KT P6SM SCT150 BKN200
     FM221800 09012KT P6SM SCT050 BKN080 PROB30 2305/2309 5SM -RA
      OVC030
     FM230900 08014KT 6SM -RA OVC030 WS020/12040KT
     FM231200 08012KT 4SM -RA OVC015=

USA.gov is the U.S. government's official web portal to all federal, state and local government web resources and services.